sensor_id;sensor_type;location;lat;lon;timestamp;P1;durP1;ratioP1;P2;durP2;ratioP2
15171;SDS011;7686;52.184;9.280;2023-04-09T00:02:12;3.67;;;2.40;;
15171;SDS011;7686;52.184;9.280;2023-04-09T00:04:39;4.05;;;2.55;;
15171;SDS011;7686;52.184;9.280;2023-04-09T00:07:06;2.97;;;2.25;;
15171;SDS011;7686;52.184;9.280;2023-04-09T00:09:32;4.85;;;2.45;;
15171;SDS011;7686;52.184;9.280;2023-04-09T00:11:59;3.33;;;2.30;;
15171;SDS011;7686;52.184;9.280;2023-04-09T00:14:27;3.83;;;2.33;;
15171;SDS011;7686;52.184;9.280;2023-04-09T00:16:53;4.00;;;2.40;;
15171;SDS011;7686;52.184;9.280;2023-04-09T00:19:20;3.78;;;2.65;;
15171;SDS011;7686;52.184;9.280;2023-04-09T00:21:47;3.40;;;2.43;;
15171;SDS011;7686;52.184;9.280;2023-04-09T00:24:13;3.88;;;2.67;;
15171;SDS011;7686;52.184;9.280;2023-04-09T00:26:40;4.00;;;2.60;;
15171;SDS011;7686;52.184;9.280;2023-04-09T00:29:06;3.83;;;2.58;;
15171;SDS011;7686;52.184;9.280;2023-04-09T00:31:33;4.05;;;2.63;;
15171;SDS011;7686;52.184;9.280;2023-04-09T00:34:00;4.03;;;2.50;;
15171;SDS011;7686;52.184;9.280;2023-04-09T00:36:26;3.67;;;2.38;;
15171;SDS011;7686;52.184;9.280;2023-04-09T00:38:53;3.50;;;2.40;;
15171;SDS011;7686;52.184;9.280;2023-04-09T00:41:20;3.80;;;2.50;;
15171;SDS011;7686;52.184;9.280;2023-04-09T00:43:46;4.18;;;2.55;;
15171;SDS011;7686;52.184;9.280;2023-04-09T00:46:13;3.50;;;2.58;;
15171;SDS011;7686;52.184;9.280;2023-04-09T00:48:41;4.90;;;2.70;;
15171;SDS011;7686;52.184;9.280;2023-04-09T00:51:08;3.93;;;2.57;;
15171;SDS011;7686;52.184;9.280;2023-04-09T00:53:34;3.80;;;2.67;;
15171;SDS011;7686;52.184;9.280;2023-04-09T00:56:01;3.90;;;2.57;;
15171;SDS011;7686;52.184;9.280;2023-04-09T00:58:29;4.50;;;2.77;;
15171;SDS011;7686;52.184;9.280;2023-04-09T01:00:55;3.50;;;2.53;;
15171;SDS011;7686;52.184;9.280;2023-04-09T01:03:22;3.67;;;2.47;;
15171;SDS011;7686;52.184;9.280;2023-04-09T01:05:52;3.60;;;2.40;;
15171;SDS011;7686;52.184;9.280;2023-04-09T01:08:36;3.00;;;2.28;;
15171;SDS011;7686;52.184;9.280;2023-04-09T01:11:31;3.37;;;2.43;;
15171;SDS011;7686;52.184;9.280;2023-04-09T01:16:54;4.27;;;2.50;;
15171;SDS011;7686;52.184;9.280;2023-04-09T01:19:38;3.77;;;2.37;;
15171;SDS011;7686;52.184;9.280;2023-04-09T01:22:23;3.77;;;2.43;;
15171;SDS011;7686;52.184;9.280;2023-04-09T01:24:59;3.78;;;2.42;;
15171;SDS011;7686;52.184;9.280;2023-04-09T01:27:34;3.58;;;2.35;;
15171;SDS011;7686;52.184;9.280;2023-04-09T01:30:08;3.63;;;2.53;;
15171;SDS011;7686;52.184;9.280;2023-04-09T01:32:37;4.80;;;2.60;;
15171;SDS011;7686;52.184;9.280;2023-04-09T01:35:05;3.55;;;2.45;;
15171;SDS011;7686;52.184;9.280;2023-04-09T01:37:33;3.90;;;2.50;;
15171;SDS011;7686;52.184;9.280;2023-04-09T01:40:00;3.30;;;2.30;;
15171;SDS011;7686;52.184;9.280;2023-04-09T01:42:29;4.43;;;2.53;;
15171;SDS011;7686;52.184;9.280;2023-04-09T01:44:56;3.67;;;2.47;;
15171;SDS011;7686;52.184;9.280;2023-04-09T01:47:24;4.17;;;2.80;;
15171;SDS011;7686;52.184;9.280;2023-04-09T01:49:52;3.53;;;2.38;;
15171;SDS011;7686;52.184;9.280;2023-04-09T01:52:19;5.20;;;2.77;;
15171;SDS011;7686;52.184;9.280;2023-04-09T01:54:45;4.25;;;2.78;;
15171;SDS011;7686;52.184;9.280;2023-04-09T01:57:12;4.03;;;2.57;;
15171;SDS011;7686;52.184;9.280;2023-04-09T01:59:39;4.13;;;2.87;;
15171;SDS011;7686;52.184;9.280;2023-04-09T02:02:08;3.70;;;2.50;;
15171;SDS011;7686;52.184;9.280;2023-04-09T02:04:38;3.83;;;2.57;;
15171;SDS011;7686;52.184;9.280;2023-04-09T02:07:18;3.27;;;2.47;;
15171;SDS011;7686;52.184;9.280;2023-04-09T02:10:01;3.50;;;2.30;;
15171;SDS011;7686;52.184;9.280;2023-04-09T02:12:30;3.50;;;2.30;;
15171;SDS011;7686;52.184;9.280;2023-04-09T02:15:01;3.60;;;2.60;;
15171;SDS011;7686;52.184;9.280;2023-04-09T02:17:28;3.30;;;2.40;;
15171;SDS011;7686;52.184;9.280;2023-04-09T02:19:55;3.43;;;2.60;;
15171;SDS011;7686;52.184;9.280;2023-04-09T02:22:22;3.83;;;2.80;;
15171;SDS011;7686;52.184;9.280;2023-04-09T02:24:48;4.20;;;2.87;;
15171;SDS011;7686;52.184;9.280;2023-04-09T02:27:15;3.97;;;2.73;;
15171;SDS011;7686;52.184;9.280;2023-04-09T02:29:42;4.00;;;2.70;;
15171;SDS011;7686;52.184;9.280;2023-04-09T02:32:08;3.97;;;2.63;;
15171;SDS011;7686;52.184;9.280;2023-04-09T02:34:35;3.77;;;2.73;;
15171;SDS011;7686;52.184;9.280;2023-04-09T02:37:01;3.57;;;2.50;;
15171;SDS011;7686;52.184;9.280;2023-04-09T02:39:28;3.33;;;2.43;;
15171;SDS011;7686;52.184;9.280;2023-04-09T02:41:55;4.17;;;2.97;;
15171;SDS011;7686;52.184;9.280;2023-04-09T02:44:22;3.53;;;2.73;;
15171;SDS011;7686;52.184;9.280;2023-04-09T02:46:49;3.85;;;2.85;;
15171;SDS011;7686;52.184;9.280;2023-04-09T02:49:19;3.63;;;2.60;;
15171;SDS011;7686;52.184;9.280;2023-04-09T02:51:46;4.30;;;2.90;;
15171;SDS011;7686;52.184;9.280;2023-04-09T02:54:12;3.93;;;2.73;;
15171;SDS011;7686;52.184;9.280;2023-04-09T02:56:39;4.10;;;2.75;;
15171;SDS011;7686;52.184;9.280;2023-04-09T02:59:06;4.20;;;2.80;;
15171;SDS011;7686;52.184;9.280;2023-04-09T03:01:32;4.10;;;2.80;;
15171;SDS011;7686;52.184;9.280;2023-04-09T03:03:59;4.40;;;2.80;;
15171;SDS011;7686;52.184;9.280;2023-04-09T03:06:27;3.90;;;2.80;;
15171;SDS011;7686;52.184;9.280;2023-04-09T03:08:53;4.20;;;2.77;;
15171;SDS011;7686;52.184;9.280;2023-04-09T03:11:20;4.30;;;3.10;;
15171;SDS011;7686;52.184;9.280;2023-04-09T03:13:47;4.27;;;2.73;;
15171;SDS011;7686;52.184;9.280;2023-04-09T03:16:14;3.97;;;2.87;;
15171;SDS011;7686;52.184;9.280;2023-04-09T03:18:41;4.07;;;2.90;;
15171;SDS011;7686;52.184;9.280;2023-04-09T03:21:08;3.70;;;2.53;;
15171;SDS011;7686;52.184;9.280;2023-04-09T03:23:34;4.03;;;2.80;;
15171;SDS011;7686;52.184;9.280;2023-04-09T03:26:02;3.85;;;2.80;;
15171;SDS011;7686;52.184;9.280;2023-04-09T03:28:30;3.40;;;2.40;;
15171;SDS011;7686;52.184;9.280;2023-04-09T03:30:57;3.93;;;2.83;;
15171;SDS011;7686;52.184;9.280;2023-04-09T03:33:23;4.17;;;2.90;;
15171;SDS011;7686;52.184;9.280;2023-04-09T03:35:53;4.20;;;3.00;;
15171;SDS011;7686;52.184;9.280;2023-04-09T03:38:20;4.03;;;2.97;;
15171;SDS011;7686;52.184;9.280;2023-04-09T03:40:47;3.97;;;2.97;;
15171;SDS011;7686;52.184;9.280;2023-04-09T03:43:13;3.77;;;2.73;;
15171;SDS011;7686;52.184;9.280;2023-04-09T03:45:40;3.60;;;2.67;;
15171;SDS011;7686;52.184;9.280;2023-04-09T03:48:07;4.33;;;2.87;;
15171;SDS011;7686;52.184;9.280;2023-04-09T03:50:37;3.97;;;2.70;;
15171;SDS011;7686;52.184;9.280;2023-04-09T03:53:05;4.30;;;2.90;;
15171;SDS011;7686;52.184;9.280;2023-04-09T03:55:31;4.07;;;2.97;;
15171;SDS011;7686;52.184;9.280;2023-04-09T03:57:58;4.20;;;2.97;;
15171;SDS011;7686;52.184;9.280;2023-04-09T04:00:25;4.32;;;2.95;;
15171;SDS011;7686;52.184;9.280;2023-04-09T04:02:51;4.50;;;3.47;;
15171;SDS011;7686;52.184;9.280;2023-04-09T04:05:21;4.23;;;2.90;;
15171;SDS011;7686;52.184;9.280;2023-04-09T04:07:48;4.07;;;2.90;;
15171;SDS011;7686;52.184;9.280;2023-04-09T04:10:15;3.77;;;2.67;;
15171;SDS011;7686;52.184;9.280;2023-04-09T04:12:42;4.33;;;2.93;;
15171;SDS011;7686;52.184;9.280;2023-04-09T04:15:08;4.20;;;3.00;;
15171;SDS011;7686;52.184;9.280;2023-04-09T04:17:35;3.63;;;2.77;;
15171;SDS011;7686;52.184;9.280;2023-04-09T04:20:02;4.27;;;3.07;;
15171;SDS011;7686;52.184;9.280;2023-04-09T04:22:29;4.60;;;3.10;;
15171;SDS011;7686;52.184;9.280;2023-04-09T04:24:55;4.03;;;2.83;;
15171;SDS011;7686;52.184;9.280;2023-04-09T04:27:22;4.57;;;3.27;;
15171;SDS011;7686;52.184;9.280;2023-04-09T04:29:49;4.13;;;2.83;;
15171;SDS011;7686;52.184;9.280;2023-04-09T04:32:15;4.28;;;2.95;;
15171;SDS011;7686;52.184;9.280;2023-04-09T04:34:42;4.07;;;3.00;;
15171;SDS011;7686;52.184;9.280;2023-04-09T04:37:08;4.17;;;3.00;;
15171;SDS011;7686;52.184;9.280;2023-04-09T04:39:35;4.60;;;3.53;;
15171;SDS011;7686;52.184;9.280;2023-04-09T04:42:01;4.10;;;3.30;;
15171;SDS011;7686;52.184;9.280;2023-04-09T04:44:28;4.80;;;3.23;;
15171;SDS011;7686;52.184;9.280;2023-04-09T04:46:55;4.33;;;3.17;;
15171;SDS011;7686;52.184;9.280;2023-04-09T04:49:21;4.60;;;3.50;;
15171;SDS011;7686;52.184;9.280;2023-04-09T04:51:48;4.50;;;3.23;;
15171;SDS011;7686;52.184;9.280;2023-04-09T04:54:14;4.78;;;3.13;;
15171;SDS011;7686;52.184;9.280;2023-04-09T04:56:41;4.50;;;3.20;;
15171;SDS011;7686;52.184;9.280;2023-04-09T04:59:08;4.60;;;3.33;;
15171;SDS011;7686;52.184;9.280;2023-04-09T05:01:34;5.47;;;3.83;;
15171;SDS011;7686;52.184;9.280;2023-04-09T05:04:01;6.07;;;4.80;;
15171;SDS011;7686;52.184;9.280;2023-04-09T05:06:29;6.87;;;5.00;;
15171;SDS011;7686;52.184;9.280;2023-04-09T05:08:56;7.27;;;5.73;;
15171;SDS011;7686;52.184;9.280;2023-04-09T05:11:23;7.13;;;5.53;;
15171;SDS011;7686;52.184;9.280;2023-04-09T05:13:50;6.90;;;5.30;;
15171;SDS011;7686;52.184;9.280;2023-04-09T05:16:17;6.67;;;4.93;;
15171;SDS011;7686;52.184;9.280;2023-04-09T05:18:44;5.70;;;4.50;;
15171;SDS011;7686;52.184;9.280;2023-04-09T05:21:12;5.93;;;4.77;;
15171;SDS011;7686;52.184;9.280;2023-04-09T05:23:38;6.83;;;4.83;;
15171;SDS011;7686;52.184;9.280;2023-04-09T05:26:05;6.28;;;4.38;;
15171;SDS011;7686;52.184;9.280;2023-04-09T05:28:32;6.17;;;4.77;;
15171;SDS011;7686;52.184;9.280;2023-04-09T05:30:58;6.20;;;4.77;;
15171;SDS011;7686;52.184;9.280;2023-04-09T05:33:25;6.40;;;4.57;;
15171;SDS011;7686;52.184;9.280;2023-04-09T05:35:52;6.23;;;4.20;;
15171;SDS011;7686;52.184;9.280;2023-04-09T05:38:18;5.93;;;4.70;;
15171;SDS011;7686;52.184;9.280;2023-04-09T05:40:45;5.73;;;3.97;;
15171;SDS011;7686;52.184;9.280;2023-04-09T05:43:13;5.83;;;4.30;;
15171;SDS011;7686;52.184;9.280;2023-04-09T05:45:40;7.20;;;4.30;;
15171;SDS011;7686;52.184;9.280;2023-04-09T05:48:07;4.47;;;3.53;;
15171;SDS011;7686;52.184;9.280;2023-04-09T05:50:33;5.38;;;3.85;;
15171;SDS011;7686;52.184;9.280;2023-04-09T05:53:19;5.10;;;3.93;;
15171;SDS011;7686;52.184;9.280;2023-04-09T05:55:45;5.30;;;4.00;;
15171;SDS011;7686;52.184;9.280;2023-04-09T05:58:14;5.90;;;3.90;;
15171;SDS011;7686;52.184;9.280;2023-04-09T06:00:41;11.17;;;3.83;;
15171;SDS011;7686;52.184;9.280;2023-04-09T06:03:07;5.60;;;3.83;;
15171;SDS011;7686;52.184;9.280;2023-04-09T06:05:34;6.57;;;3.93;;
15171;SDS011;7686;52.184;9.280;2023-04-09T06:08:01;5.00;;;3.67;;
15171;SDS011;7686;52.184;9.280;2023-04-09T06:10:28;4.27;;;3.47;;
15171;SDS011;7686;52.184;9.280;2023-04-09T06:12:56;4.70;;;3.47;;
15171;SDS011;7686;52.184;9.280;2023-04-09T06:15:23;6.03;;;3.53;;
15171;SDS011;7686;52.184;9.280;2023-04-09T06:17:50;5.78;;;3.40;;
15171;SDS011;7686;52.184;9.280;2023-04-09T06:20:16;4.53;;;3.30;;
15171;SDS011;7686;52.184;9.280;2023-04-09T06:22:43;5.10;;;3.28;;
15171;SDS011;7686;52.184;9.280;2023-04-09T06:25:09;5.03;;;3.38;;
15171;SDS011;7686;52.184;9.280;2023-04-09T06:27:36;5.55;;;3.38;;
15171;SDS011;7686;52.184;9.280;2023-04-09T06:30:03;4.65;;;3.17;;
15171;SDS011;7686;52.184;9.280;2023-04-09T06:32:30;4.47;;;3.20;;
15171;SDS011;7686;52.184;9.280;2023-04-09T06:35:08;4.90;;;3.43;;
15171;SDS011;7686;52.184;9.280;2023-04-09T06:37:36;4.68;;;3.30;;
15171;SDS011;7686;52.184;9.280;2023-04-09T06:40:02;4.53;;;3.27;;
15171;SDS011;7686;52.184;9.280;2023-04-09T06:42:30;4.20;;;2.93;;
15171;SDS011;7686;52.184;9.280;2023-04-09T06:44:56;3.88;;;3.10;;
15171;SDS011;7686;52.184;9.280;2023-04-09T06:47:23;6.93;;;3.20;;
15171;SDS011;7686;52.184;9.280;2023-04-09T06:49:49;3.58;;;2.70;;
15171;SDS011;7686;52.184;9.280;2023-04-09T06:52:16;4.32;;;3.05;;
15171;SDS011;7686;52.184;9.280;2023-04-09T06:54:43;3.80;;;2.63;;
15171;SDS011;7686;52.184;9.280;2023-04-09T06:57:10;4.15;;;3.00;;
15171;SDS011;7686;52.184;9.280;2023-04-09T06:59:37;4.20;;;2.72;;
15171;SDS011;7686;52.184;9.280;2023-04-09T07:02:04;4.15;;;3.25;;
15171;SDS011;7686;52.184;9.280;2023-04-09T07:04:31;4.40;;;2.90;;
15171;SDS011;7686;52.184;9.280;2023-04-09T07:06:58;4.75;;;2.90;;
15171;SDS011;7686;52.184;9.280;2023-04-09T07:09:25;4.30;;;2.97;;
15171;SDS011;7686;52.184;9.280;2023-04-09T07:11:51;4.35;;;3.10;;
15171;SDS011;7686;52.184;9.280;2023-04-09T07:14:18;4.57;;;2.95;;
15171;SDS011;7686;52.184;9.280;2023-04-09T07:16:44;3.90;;;3.10;;
15171;SDS011;7686;52.184;9.280;2023-04-09T07:19:11;4.33;;;3.30;;
15171;SDS011;7686;52.184;9.280;2023-04-09T07:21:38;4.28;;;2.97;;
15171;SDS011;7686;52.184;9.280;2023-04-09T07:24:04;4.20;;;2.78;;
15171;SDS011;7686;52.184;9.280;2023-04-09T07:26:31;11.43;;;3.38;;
15171;SDS011;7686;52.184;9.280;2023-04-09T07:28:58;4.53;;;3.13;;
15171;SDS011;7686;52.184;9.280;2023-04-09T07:31:25;4.90;;;2.80;;
15171;SDS011;7686;52.184;9.280;2023-04-09T07:33:52;5.20;;;3.08;;
15171;SDS011;7686;52.184;9.280;2023-04-09T07:36:18;4.45;;;2.85;;
15171;SDS011;7686;52.184;9.280;2023-04-09T07:38:45;3.70;;;2.85;;
15171;SDS011;7686;52.184;9.280;2023-04-09T07:41:12;4.05;;;2.60;;
15171;SDS011;7686;52.184;9.280;2023-04-09T07:43:39;4.05;;;2.63;;
15171;SDS011;7686;52.184;9.280;2023-04-09T07:46:06;4.20;;;2.57;;
15171;SDS011;7686;52.184;9.280;2023-04-09T07:48:32;5.78;;;2.90;;
15171;SDS011;7686;52.184;9.280;2023-04-09T07:50:59;5.13;;;2.75;;
15171;SDS011;7686;52.184;9.280;2023-04-09T07:53:26;4.50;;;3.00;;
15171;SDS011;7686;52.184;9.280;2023-04-09T07:55:52;5.35;;;2.95;;
15171;SDS011;7686;52.184;9.280;2023-04-09T07:58:19;4.82;;;2.85;;
15171;SDS011;7686;52.184;9.280;2023-04-09T08:00:46;3.80;;;2.60;;
15171;SDS011;7686;52.184;9.280;2023-04-09T08:03:13;4.53;;;2.50;;
15171;SDS011;7686;52.184;9.280;2023-04-09T08:05:40;4.50;;;2.80;;
15171;SDS011;7686;52.184;9.280;2023-04-09T08:08:07;3.50;;;2.50;;
15171;SDS011;7686;52.184;9.280;2023-04-09T08:10:34;4.10;;;2.50;;
15171;SDS011;7686;52.184;9.280;2023-04-09T08:13:00;4.38;;;2.45;;
15171;SDS011;7686;52.184;9.280;2023-04-09T08:15:27;4.20;;;2.72;;
15171;SDS011;7686;52.184;9.280;2023-04-09T08:17:54;4.70;;;2.72;;
15171;SDS011;7686;52.184;9.280;2023-04-09T08:20:20;3.55;;;2.40;;
15171;SDS011;7686;52.184;9.280;2023-04-09T08:22:47;4.85;;;2.72;;
15171;SDS011;7686;52.184;9.280;2023-04-09T08:25:13;4.00;;;2.50;;
15171;SDS011;7686;52.184;9.280;2023-04-09T08:27:40;3.47;;;2.50;;
15171;SDS011;7686;52.184;9.280;2023-04-09T08:30:07;4.38;;;2.60;;
15171;SDS011;7686;52.184;9.280;2023-04-09T08:32:34;4.35;;;2.63;;
15171;SDS011;7686;52.184;9.280;2023-04-09T08:35:01;3.22;;;2.28;;
15171;SDS011;7686;52.184;9.280;2023-04-09T08:37:28;4.63;;;2.50;;
15171;SDS011;7686;52.184;9.280;2023-04-09T08:39:54;3.47;;;2.33;;
15171;SDS011;7686;52.184;9.280;2023-04-09T08:42:21;3.92;;;2.75;;
15171;SDS011;7686;52.184;9.280;2023-04-09T08:44:50;3.90;;;2.33;;
15171;SDS011;7686;52.184;9.280;2023-04-09T08:47:16;4.68;;;2.40;;
15171;SDS011;7686;52.184;9.280;2023-04-09T08:49:45;2.65;;;2.10;;
15171;SDS011;7686;52.184;9.280;2023-04-09T08:52:14;3.65;;;2.30;;
15171;SDS011;7686;52.184;9.280;2023-04-09T08:54:42;4.05;;;2.45;;
15171;SDS011;7686;52.184;9.280;2023-04-09T08:57:09;3.58;;;2.55;;
15171;SDS011;7686;52.184;9.280;2023-04-09T08:59:36;3.83;;;2.30;;
15171;SDS011;7686;52.184;9.280;2023-04-09T09:02:06;3.17;;;2.05;;
15171;SDS011;7686;52.184;9.280;2023-04-09T09:04:43;3.08;;;2.22;;
15171;SDS011;7686;52.184;9.280;2023-04-09T09:07:11;3.35;;;2.40;;
15171;SDS011;7686;52.184;9.280;2023-04-09T09:09:51;4.40;;;2.33;;
15171;SDS011;7686;52.184;9.280;2023-04-09T09:12:52;3.42;;;2.28;;
15171;SDS011;7686;52.184;9.280;2023-04-09T09:15:25;3.60;;;2.10;;
15171;SDS011;7686;52.184;9.280;2023-04-09T09:17:54;3.42;;;2.17;;
15171;SDS011;7686;52.184;9.280;2023-04-09T09:20:22;3.42;;;2.17;;
15171;SDS011;7686;52.184;9.280;2023-04-09T09:22:50;4.18;;;2.33;;
15171;SDS011;7686;52.184;9.280;2023-04-09T09:25:20;3.03;;;2.17;;
15171;SDS011;7686;52.184;9.280;2023-04-09T09:27:51;3.53;;;2.00;;
15171;SDS011;7686;52.184;9.280;2023-04-09T09:30:25;4.53;;;2.40;;
15171;SDS011;7686;52.184;9.280;2023-04-09T09:32:53;2.92;;;2.13;;
15171;SDS011;7686;52.184;9.280;2023-04-09T09:35:23;2.92;;;2.10;;
15171;SDS011;7686;52.184;9.280;2023-04-09T09:38:00;2.55;;;2.10;;
15171;SDS011;7686;52.184;9.280;2023-04-09T09:40:28;2.58;;;1.90;;
15171;SDS011;7686;52.184;9.280;2023-04-09T09:42:55;3.20;;;2.20;;
15171;SDS011;7686;52.184;9.280;2023-04-09T09:45:23;3.05;;;1.98;;
15171;SDS011;7686;52.184;9.280;2023-04-09T09:47:51;4.38;;;2.20;;
15171;SDS011;7686;52.184;9.280;2023-04-09T09:50:20;3.50;;;2.38;;
15171;SDS011;7686;52.184;9.280;2023-04-09T09:52:56;3.17;;;2.35;;
15171;SDS011;7686;52.184;9.280;2023-04-09T09:55:27;3.33;;;2.13;;
15171;SDS011;7686;52.184;9.280;2023-04-09T09:57:57;3.67;;;2.33;;
15171;SDS011;7686;52.184;9.280;2023-04-09T10:00:27;4.07;;;2.53;;
15171;SDS011;7686;52.184;9.280;2023-04-09T10:02:58;4.13;;;3.00;;
15171;SDS011;7686;52.184;9.280;2023-04-09T10:05:35;3.78;;;2.65;;
15171;SDS011;7686;52.184;9.280;2023-04-09T10:08:04;4.43;;;3.00;;
15171;SDS011;7686;52.184;9.280;2023-04-09T10:10:32;3.85;;;2.67;;
15171;SDS011;7686;52.184;9.280;2023-04-09T10:12:59;3.90;;;2.83;;
15171;SDS011;7686;52.184;9.280;2023-04-09T10:15:28;4.25;;;2.90;;
15171;SDS011;7686;52.184;9.280;2023-04-09T10:17:56;3.65;;;2.75;;
15171;SDS011;7686;52.184;9.280;2023-04-09T10:20:25;5.07;;;3.13;;
15171;SDS011;7686;52.184;9.280;2023-04-09T10:23:05;3.63;;;2.50;;
15171;SDS011;7686;52.184;9.280;2023-04-09T10:25:40;4.13;;;2.75;;
15171;SDS011;7686;52.184;9.280;2023-04-09T10:28:13;4.10;;;2.53;;
15171;SDS011;7686;52.184;9.280;2023-04-09T10:30:42;4.57;;;3.03;;
15171;SDS011;7686;52.184;9.280;2023-04-09T10:33:13;4.53;;;2.90;;
15171;SDS011;7686;52.184;9.280;2023-04-09T10:35:42;4.30;;;3.00;;
15171;SDS011;7686;52.184;9.280;2023-04-09T10:38:13;4.07;;;2.85;;
15171;SDS011;7686;52.184;9.280;2023-04-09T10:40:40;3.40;;;2.58;;
15171;SDS011;7686;52.184;9.280;2023-04-09T10:43:17;4.38;;;3.13;;
15171;SDS011;7686;52.184;9.280;2023-04-09T10:45:45;4.07;;;3.08;;
15171;SDS011;7686;52.184;9.280;2023-04-09T10:48:18;4.47;;;2.97;;
15171;SDS011;7686;52.184;9.280;2023-04-09T10:50:45;4.20;;;2.88;;
15171;SDS011;7686;52.184;9.280;2023-04-09T10:53:22;3.88;;;2.85;;
15171;SDS011;7686;52.184;9.280;2023-04-09T10:55:53;3.45;;;2.63;;
15171;SDS011;7686;52.184;9.280;2023-04-09T10:58:21;4.55;;;2.83;;
15171;SDS011;7686;52.184;9.280;2023-04-09T11:00:48;4.10;;;2.90;;
15171;SDS011;7686;52.184;9.280;2023-04-09T11:05:56;4.05;;;2.83;;
15171;SDS011;7686;52.184;9.280;2023-04-09T11:08:34;4.32;;;2.70;;
15171;SDS011;7686;52.184;9.280;2023-04-09T11:11:03;3.42;;;2.67;;
15171;SDS011;7686;52.184;9.280;2023-04-09T11:13:31;3.65;;;2.50;;
15171;SDS011;7686;52.184;9.280;2023-04-09T11:15:58;4.07;;;2.92;;
15171;SDS011;7686;52.184;9.280;2023-04-09T11:18:26;2.97;;;2.22;;
15171;SDS011;7686;52.184;9.280;2023-04-09T11:20:54;3.70;;;2.60;;
15171;SDS011;7686;52.184;9.280;2023-04-09T11:23:22;6.07;;;2.67;;
15171;SDS011;7686;52.184;9.280;2023-04-09T11:25:50;3.47;;;2.55;;
15171;SDS011;7686;52.184;9.280;2023-04-09T11:28:17;3.40;;;2.45;;
15171;SDS011;7686;52.184;9.280;2023-04-09T11:30:45;3.75;;;2.42;;
15171;SDS011;7686;52.184;9.280;2023-04-09T11:33:12;4.18;;;2.35;;
15171;SDS011;7686;52.184;9.280;2023-04-09T11:35:39;5.18;;;2.25;;
15171;SDS011;7686;52.184;9.280;2023-04-09T11:38:06;3.75;;;2.60;;
15171;SDS011;7686;52.184;9.280;2023-04-09T11:40:34;4.88;;;2.30;;
15171;SDS011;7686;52.184;9.280;2023-04-09T11:43:02;4.68;;;2.40;;
15171;SDS011;7686;52.184;9.280;2023-04-09T11:45:29;3.50;;;2.50;;
15171;SDS011;7686;52.184;9.280;2023-04-09T11:47:56;3.40;;;2.42;;
15171;SDS011;7686;52.184;9.280;2023-04-09T11:50:24;3.92;;;2.30;;
15171;SDS011;7686;52.184;9.280;2023-04-09T11:52:50;3.30;;;2.10;;
15171;SDS011;7686;52.184;9.280;2023-04-09T11:55:27;3.60;;;2.50;;
15171;SDS011;7686;52.184;9.280;2023-04-09T11:57:57;3.22;;;2.30;;
15171;SDS011;7686;52.184;9.280;2023-04-09T12:00:26;3.00;;;2.10;;
15171;SDS011;7686;52.184;9.280;2023-04-09T12:03:00;4.05;;;2.13;;
15171;SDS011;7686;52.184;9.280;2023-04-09T12:05:30;3.80;;;2.40;;
15171;SDS011;7686;52.184;9.280;2023-04-09T12:07:58;4.20;;;2.47;;
15171;SDS011;7686;52.184;9.280;2023-04-09T12:10:33;4.00;;;2.40;;
15171;SDS011;7686;52.184;9.280;2023-04-09T12:13:02;3.45;;;1.98;;
15171;SDS011;7686;52.184;9.280;2023-04-09T12:15:33;5.30;;;2.38;;
15171;SDS011;7686;52.184;9.280;2023-04-09T12:18:10;4.00;;;2.50;;
15171;SDS011;7686;52.184;9.280;2023-04-09T12:20:38;3.17;;;2.05;;
15171;SDS011;7686;52.184;9.280;2023-04-09T12:23:06;3.75;;;2.35;;
15171;SDS011;7686;52.184;9.280;2023-04-09T12:25:37;4.65;;;2.17;;
15171;SDS011;7686;52.184;9.280;2023-04-09T12:28:06;3.65;;;2.35;;
15171;SDS011;7686;52.184;9.280;2023-04-09T12:30:33;4.40;;;2.53;;
15171;SDS011;7686;52.184;9.280;2023-04-09T12:33:01;4.75;;;2.20;;
15171;SDS011;7686;52.184;9.280;2023-04-09T12:35:29;3.53;;;2.40;;
15171;SDS011;7686;52.184;9.280;2023-04-09T12:37:56;4.40;;;2.20;;
15171;SDS011;7686;52.184;9.280;2023-04-09T12:40:24;4.07;;;2.10;;
15171;SDS011;7686;52.184;9.280;2023-04-09T12:42:51;3.45;;;2.05;;
15171;SDS011;7686;52.184;9.280;2023-04-09T12:45:19;3.25;;;2.15;;
15171;SDS011;7686;52.184;9.280;2023-04-09T12:47:46;3.65;;;2.15;;
15171;SDS011;7686;52.184;9.280;2023-04-09T12:50:13;3.30;;;2.10;;
15171;SDS011;7686;52.184;9.280;2023-04-09T12:52:41;3.00;;;2.22;;
15171;SDS011;7686;52.184;9.280;2023-04-09T12:55:09;3.58;;;2.30;;
15171;SDS011;7686;52.184;9.280;2023-04-09T12:57:37;4.25;;;2.38;;
15171;SDS011;7686;52.184;9.280;2023-04-09T13:00:05;2.90;;;2.08;;
15171;SDS011;7686;52.184;9.280;2023-04-09T13:02:32;4.32;;;2.20;;
15171;SDS011;7686;52.184;9.280;2023-04-09T13:05:00;3.35;;;2.08;;
15171;SDS011;7686;52.184;9.280;2023-04-09T13:07:26;3.60;;;2.10;;
15171;SDS011;7686;52.184;9.280;2023-04-09T13:09:54;3.40;;;2.15;;
15171;SDS011;7686;52.184;9.280;2023-04-09T13:12:22;3.03;;;1.83;;
15171;SDS011;7686;52.184;9.280;2023-04-09T13:14:51;3.13;;;2.00;;
15171;SDS011;7686;52.184;9.280;2023-04-09T13:17:19;4.05;;;2.10;;
15171;SDS011;7686;52.184;9.280;2023-04-09T13:19:45;4.00;;;2.25;;
15171;SDS011;7686;52.184;9.280;2023-04-09T13:22:12;5.30;;;2.00;;
15171;SDS011;7686;52.184;9.280;2023-04-09T13:24:38;6.80;;;2.05;;
15171;SDS011;7686;52.184;9.280;2023-04-09T13:27:05;4.32;;;2.20;;
15171;SDS011;7686;52.184;9.280;2023-04-09T13:29:36;5.50;;;2.30;;
15171;SDS011;7686;52.184;9.280;2023-04-09T13:32:02;4.65;;;1.98;;
15171;SDS011;7686;52.184;9.280;2023-04-09T13:34:32;3.17;;;2.03;;
15171;SDS011;7686;52.184;9.280;2023-04-09T13:37:00;4.03;;;1.92;;
15171;SDS011;7686;52.184;9.280;2023-04-09T13:39:28;3.60;;;2.10;;
15171;SDS011;7686;52.184;9.280;2023-04-09T13:41:54;2.85;;;1.95;;
15171;SDS011;7686;52.184;9.280;2023-04-09T13:44:22;6.03;;;2.00;;
15171;SDS011;7686;52.184;9.280;2023-04-09T13:46:49;3.38;;;2.20;;
15171;SDS011;7686;52.184;9.280;2023-04-09T13:49:16;3.10;;;2.00;;
15171;SDS011;7686;52.184;9.280;2023-04-09T13:51:43;3.50;;;2.10;;
15171;SDS011;7686;52.184;9.280;2023-04-09T13:54:10;3.83;;;1.90;;
15171;SDS011;7686;52.184;9.280;2023-04-09T13:56:37;2.88;;;1.95;;
15171;SDS011;7686;52.184;9.280;2023-04-09T13:59:04;3.22;;;2.00;;
15171;SDS011;7686;52.184;9.280;2023-04-09T14:01:31;3.65;;;1.98;;
15171;SDS011;7686;52.184;9.280;2023-04-09T14:03:59;3.13;;;2.10;;
15171;SDS011;7686;52.184;9.280;2023-04-09T14:06:26;4.45;;;2.00;;
15171;SDS011;7686;52.184;9.280;2023-04-09T14:08:53;3.58;;;2.00;;
15171;SDS011;7686;52.184;9.280;2023-04-09T14:11:21;4.35;;;2.15;;
15171;SDS011;7686;52.184;9.280;2023-04-09T14:13:47;2.55;;;1.83;;
15171;SDS011;7686;52.184;9.280;2023-04-09T14:16:14;4.20;;;2.10;;
15171;SDS011;7686;52.184;9.280;2023-04-09T14:18:41;3.45;;;1.92;;
15171;SDS011;7686;52.184;9.280;2023-04-09T14:21:07;3.90;;;2.15;;
15171;SDS011;7686;52.184;9.280;2023-04-09T14:23:35;5.72;;;2.60;;
15171;SDS011;7686;52.184;9.280;2023-04-09T14:26:03;4.95;;;2.70;;
15171;SDS011;7686;52.184;9.280;2023-04-09T14:28:31;5.13;;;3.00;;
15171;SDS011;7686;52.184;9.280;2023-04-09T14:30:58;4.82;;;2.53;;
15171;SDS011;7686;52.184;9.280;2023-04-09T14:33:25;3.50;;;2.42;;
15171;SDS011;7686;52.184;9.280;2023-04-09T14:35:51;5.20;;;2.63;;
15171;SDS011;7686;52.184;9.280;2023-04-09T14:38:18;5.18;;;2.53;;
15171;SDS011;7686;52.184;9.280;2023-04-09T14:40:45;4.00;;;2.47;;
15171;SDS011;7686;52.184;9.280;2023-04-09T14:43:11;3.67;;;2.50;;
15171;SDS011;7686;52.184;9.280;2023-04-09T14:45:38;4.80;;;2.55;;
15171;SDS011;7686;52.184;9.280;2023-04-09T14:48:05;4.90;;;2.53;;
15171;SDS011;7686;52.184;9.280;2023-04-09T14:50:32;5.13;;;2.53;;
15171;SDS011;7686;52.184;9.280;2023-04-09T14:52:59;5.43;;;2.70;;
15171;SDS011;7686;52.184;9.280;2023-04-09T14:55:26;4.13;;;2.50;;
15171;SDS011;7686;52.184;9.280;2023-04-09T14:57:53;5.05;;;2.67;;
15171;SDS011;7686;52.184;9.280;2023-04-09T15:00:20;4.55;;;2.70;;
15171;SDS011;7686;52.184;9.280;2023-04-09T15:02:47;3.75;;;2.50;;
15171;SDS011;7686;52.184;9.280;2023-04-09T15:05:14;4.15;;;2.70;;
15171;SDS011;7686;52.184;9.280;2023-04-09T15:07:41;3.55;;;2.70;;
15171;SDS011;7686;52.184;9.280;2023-04-09T15:10:08;4.90;;;2.65;;
15171;SDS011;7686;52.184;9.280;2023-04-09T15:12:36;3.92;;;2.47;;